sensor_id;sensor_type;location;lat;lon;timestamp;pressure;altitude;pressure_sealevel;temperature;humidity
77279;BME280;66332;50.436;15.378;2022-12-28T05:03:54;98930.00;;;-2.06;89.14
77279;BME280;66332;50.436;15.378;2022-12-28T05:08:36;98946.38;;;-1.92;89.24
77279;BME280;66332;50.436;15.378;2022-12-28T05:13:17;98945.44;;;-1.75;88.81
77279;BME280;66332;50.436;15.378;2022-12-28T05:17:57;98936.63;;;-1.87;89.02
77279;BME280;66332;50.436;15.378;2022-12-28T05:22:38;98915.44;;;-1.76;88.29
77279;BME280;66332;50.436;15.378;2022-12-28T05:27:19;98902.09;;;-1.68;88.01
77279;BME280;66332;50.436;15.378;2022-12-28T05:32:00;98911.53;;;-1.67;88.26
77279;BME280;66332;50.436;15.378;2022-12-28T05:36:41;98900.72;;;-1.90;89.99
77279;BME280;66332;50.436;15.378;2022-12-28T05:41:24;98891.56;;;-1.64;88.26
77279;BME280;66332;50.436;15.378;2022-12-28T05:46:08;98888.53;;;-1.56;88.47
77279;BME280;66332;50.436;15.378;2022-12-28T05:50:49;98879.84;;;-1.39;87.18
77279;BME280;66332;50.436;15.378;2022-12-28T05:55:30;98873.81;;;-1.54;86.82
77279;BME280;66332;50.436;15.378;2022-12-28T06:00:12;98888.28;;;-1.51;87.15
77279;BME280;66332;50.436;15.378;2022-12-28T06:04:53;98872.94;;;-1.39;86.32
77279;BME280;66332;50.436;15.378;2022-12-28T06:09:34;98895.03;;;-1.34;86.23
77279;BME280;66332;50.436;15.378;2022-12-28T06:14:15;98896.41;;;-1.43;87.46
77279;BME280;66332;50.436;15.378;2022-12-28T06:18:56;98889.81;;;-1.33;88.46
77279;BME280;66332;50.436;15.378;2022-12-28T06:23:37;98893.44;;;-1.51;89.42
77279;BME280;66332;50.436;15.378;2022-12-28T06:28:18;98878.91;;;-1.38;88.09
77279;BME280;66332;50.436;15.378;2022-12-28T06:32:59;98873.44;;;-1.18;86.96
77279;BME280;66332;50.436;15.378;2022-12-28T06:37:40;98882.28;;;-1.22;87.68
77279;BME280;66332;50.436;15.378;2022-12-28T06:42:20;98888.09;;;-1.18;87.93
77279;BME280;66332;50.436;15.378;2022-12-28T06:47:01;98888.78;;;-1.00;87.91
77279;BME280;66332;50.436;15.378;2022-12-28T06:51:42;98890.69;;;-1.04;87.77
77279;BME280;66332;50.436;15.378;2022-12-28T06:56:28;98891.53;;;-1.03;88.38
77279;BME280;66332;50.436;15.378;2022-12-28T07:01:16;98878.69;;;-1.19;88.83
77279;BME280;66332;50.436;15.378;2022-12-28T07:06:03;98873.38;;;-1.02;88.06
77279;BME280;66332;50.436;15.378;2022-12-28T07:10:44;98863.97;;;-1.03;88.30
77279;BME280;66332;50.436;15.378;2022-12-28T07:15:26;98876.97;;;-0.90;88.91
77279;BME280;66332;50.436;15.378;2022-12-28T07:20:07;98869.44;;;-0.79;88.22
77279;BME280;66332;50.436;15.378;2022-12-28T07:24:48;98877.22;;;-0.95;88.50
77279;BME280;66332;50.436;15.378;2022-12-28T07:29:29;98872.25;;;-0.98;88.12
77279;BME280;66332;50.436;15.378;2022-12-28T07:34:10;98858.59;;;-1.14;88.17
77279;BME280;66332;50.436;15.378;2022-12-28T07:38:52;98873.38;;;-1.02;87.14
77279;BME280;66332;50.436;15.378;2022-12-28T07:43:33;98859.25;;;-1.25;88.21
77279;BME280;66332;50.436;15.378;2022-12-28T07:48:14;98852.97;;;-1.21;88.33
77279;BME280;66332;50.436;15.378;2022-12-28T07:52:55;98870.69;;;-1.14;87.59
77279;BME280;66332;50.436;15.378;2022-12-28T07:57:36;98857.59;;;-1.11;86.63
77279;BME280;66332;50.436;15.378;2022-12-28T08:02:17;98849.72;;;-1.39;88.48
77279;BME280;66332;50.436;15.378;2022-12-28T08:06:58;98854.63;;;-1.20;87.86
77279;BME280;66332;50.436;15.378;2022-12-28T08:11:44;98860.28;;;-0.99;86.97
77279;BME280;66332;50.436;15.378;2022-12-28T08:16:27;98854.75;;;-0.93;85.99
77279;BME280;66332;50.436;15.378;2022-12-28T08:21:13;98873.19;;;-0.56;85.12
77279;BME280;66332;50.436;15.378;2022-12-28T08:25:55;98856.03;;;-0.57;85.09
77279;BME280;66332;50.436;15.378;2022-12-28T08:30:36;98866.94;;;-0.52;85.45
77279;BME280;66332;50.436;15.378;2022-12-28T08:35:17;98848.28;;;-0.42;85.91
77279;BME280;66332;50.436;15.378;2022-12-28T08:39:58;98826.56;;;-0.40;85.01
77279;BME280;66332;50.436;15.378;2022-12-28T08:44:39;98808.50;;;-0.40;85.61
77279;BME280;66332;50.436;15.378;2022-12-28T08:49:20;98806.47;;;-0.35;86.67
77279;BME280;66332;50.436;15.378;2022-12-28T08:54:01;98812.41;;;-0.20;86.04
77279;BME280;66332;50.436;15.378;2022-12-28T08:58:43;98816.03;;;0.05;85.65
77279;BME280;66332;50.436;15.378;2022-12-28T09:03:24;98813.09;;;-0.04;86.05
77279;BME280;66332;50.436;15.378;2022-12-28T09:08:05;98809.63;;;0.10;85.73
77279;BME280;66332;50.436;15.378;2022-12-28T09:12:46;98804.88;;;0.17;85.94
77279;BME280;66332;50.436;15.378;2022-12-28T09:17:27;98814.34;;;0.31;86.18
77279;BME280;66332;50.436;15.378;2022-12-28T09:22:08;98804.50;;;0.36;86.60
77279;BME280;66332;50.436;15.378;2022-12-28T09:26:49;98791.63;;;0.61;85.24
77279;BME280;66332;50.436;15.378;2022-12-28T09:31:32;98789.97;;;0.86;83.84
77279;BME280;66332;50.436;15.378;2022-12-28T09:36:16;98778.16;;;0.82;84.36
77279;BME280;66332;50.436;15.378;2022-12-28T09:40:58;98776.25;;;1.09;83.21
77279;BME280;66332;50.436;15.378;2022-12-28T09:45:40;98761.28;;;0.89;83.95
77279;BME280;66332;50.436;15.378;2022-12-28T09:50:28;98751.13;;;0.86;84.63
77279;BME280;66332;50.436;15.378;2022-12-28T09:55:12;98765.28;;;1.06;85.38
77279;BME280;66332;50.436;15.378;2022-12-28T09:59:54;98759.84;;;1.34;82.95
77279;BME280;66332;50.436;15.378;2022-12-28T10:04:35;98757.34;;;1.33;83.00
77279;BME280;66332;50.436;15.378;2022-12-28T10:09:28;98763.06;;;1.38;82.86
77279;BME280;66332;50.436;15.378;2022-12-28T10:14:25;98765.06;;;1.58;82.14
77279;BME280;66332;50.436;15.378;2022-12-28T10:19:07;98758.28;;;1.69;81.87
77279;BME280;66332;50.436;15.378;2022-12-28T10:23:50;98729.69;;;1.33;81.81
77279;BME280;66332;50.436;15.378;2022-12-28T10:28:46;98725.31;;;1.47;83.27
77279;BME280;66332;50.436;15.378;2022-12-28T10:33:28;98706.16;;;1.36;83.03
77279;BME280;66332;50.436;15.378;2022-12-28T10:43:01;98686.88;;;1.41;84.19
77279;BME280;66332;50.436;15.378;2022-12-28T10:47:47;98692.31;;;1.49;83.87
77279;BME280;66332;50.436;15.378;2022-12-28T10:52:30;98683.28;;;1.54;83.65
77279;BME280;66332;50.436;15.378;2022-12-28T10:57:19;98679.38;;;1.84;83.08
77279;BME280;66332;50.436;15.378;2022-12-28T11:06:56;98676.91;;;1.82;81.56
77279;BME280;66332;50.436;15.378;2022-12-28T11:11:38;98660.69;;;2.03;81.79
77279;BME280;66332;50.436;15.378;2022-12-28T11:16:19;98666.72;;;2.15;81.41
77279;BME280;66332;50.436;15.378;2022-12-28T11:21:00;98657.88;;;2.06;82.32
77279;BME280;66332;50.436;15.378;2022-12-28T11:25:41;98654.13;;;2.10;82.78
77279;BME280;66332;50.436;15.378;2022-12-28T11:30:23;98652.00;;;2.04;83.17
77279;BME280;66332;50.436;15.378;2022-12-28T11:35:05;98644.59;;;2.33;81.98
77279;BME280;66332;50.436;15.378;2022-12-28T11:39:47;98637.25;;;2.16;82.57
77279;BME280;66332;50.436;15.378;2022-12-28T11:49:28;98616.88;;;2.22;81.94
77279;BME280;66332;50.436;15.378;2022-12-28T11:54:35;98624.66;;;2.22;82.92
77279;BME280;66332;50.436;15.378;2022-12-28T11:59:24;98607.41;;;2.55;81.80
77279;BME280;66332;50.436;15.378;2022-12-28T12:04:17;98584.31;;;2.29;82.38
77279;BME280;66332;50.436;15.378;2022-12-28T12:08:59;98588.66;;;2.51;81.77
77279;BME280;66332;50.436;15.378;2022-12-28T12:13:42;98581.22;;;2.58;82.31
77279;BME280;66332;50.436;15.378;2022-12-28T12:18:25;98571.66;;;2.70;82.94
77279;BME280;66332;50.436;15.378;2022-12-28T12:23:12;98561.56;;;2.99;80.62
77279;BME280;66332;50.436;15.378;2022-12-28T12:28:00;98563.41;;;3.08;80.36
77279;BME280;66332;50.436;15.378;2022-12-28T12:33:06;98557.22;;;3.20;80.33
77279;BME280;66332;50.436;15.378;2022-12-28T12:38:04;98557.97;;;3.11;80.41
77279;BME280;66332;50.436;15.378;2022-12-28T12:58:25;98530.81;;;3.04;81.49
77279;BME280;66332;50.436;15.378;2022-12-28T13:03:28;98516.94;;;3.26;79.11
77279;BME280;66332;50.436;15.378;2022-12-28T13:08:24;98515.97;;;3.48;78.19
77279;BME280;66332;50.436;15.378;2022-12-28T13:18:22;98500.44;;;3.37;78.98
77279;BME280;66332;50.436;15.378;2022-12-28T13:23:03;98492.28;;;3.41;79.07
77279;BME280;66332;50.436;15.378;2022-12-28T13:27:45;98495.22;;;3.58;79.38
77279;BME280;66332;50.436;15.378;2022-12-28T13:32:28;98483.41;;;3.44;80.26
77279;BME280;66332;50.436;15.378;2022-12-28T13:37:14;98483.25;;;3.45;80.53
77279;BME280;66332;50.436;15.378;2022-12-28T13:42:03;98467.22;;;3.19;81.13
77279;BME280;66332;50.436;15.378;2022-12-28T13:46:49;98493.97;;;3.52;80.82
77279;BME280;66332;50.436;15.378;2022-12-28T13:51:34;98475.91;;;3.51;80.40
77279;BME280;66332;50.436;15.378;2022-12-28T13:56:18;98478.00;;;3.36;81.41
77279;BME280;66332;50.436;15.378;2022-12-28T14:01:03;98480.41;;;3.28;82.16
77279;BME280;66332;50.436;15.378;2022-12-28T14:05:48;98484.47;;;3.20;82.45
77279;BME280;66332;50.436;15.378;2022-12-28T14:10:30;98485.47;;;3.50;80.56
77279;BME280;66332;50.436;15.378;2022-12-28T14:15:12;98479.13;;;3.43;80.58
77279;BME280;66332;50.436;15.378;2022-12-28T14:19:53;98459.56;;;3.18;82.07
77279;BME280;66332;50.436;15.378;2022-12-28T14:24:35;98468.78;;;3.53;80.96
77279;BME280;66332;50.436;15.378;2022-12-28T14:29:36;98454.09;;;3.42;80.81
77279;BME280;66332;50.436;15.378;2022-12-28T14:34:23;98477.53;;;3.52;81.58
77279;BME280;66332;50.436;15.378;2022-12-28T14:39:05;98463.47;;;3.54;81.11
77279;BME280;66332;50.436;15.378;2022-12-28T14:44:03;98461.50;;;3.47;80.84
77279;BME280;66332;50.436;15.378;2022-12-28T14:48:45;98456.19;;;3.48;80.94
77279;BME280;66332;50.436;15.378;2022-12-28T14:53:28;98463.41;;;3.65;80.20
77279;BME280;66332;50.436;15.378;2022-12-28T14:58:17;98474.91;;;3.73;80.17
77279;BME280;66332;50.436;15.378;2022-12-28T15:03:13;98460.91;;;3.64;80.34
77279;BME280;66332;50.436;15.378;2022-12-28T15:07:55;98458.28;;;3.33;82.12
77279;BME280;66332;50.436;15.378;2022-12-28T15:12:36;98451.06;;;3.37;81.30
77279;BME280;66332;50.436;15.378;2022-12-28T15:17:17;98454.63;;;3.36;81.61
77279;BME280;66332;50.436;15.378;2022-12-28T15:21:58;98438.56;;;3.10;82.48
77279;BME280;66332;50.436;15.378;2022-12-28T15:26:39;98450.81;;;3.19;82.96
77279;BME280;66332;50.436;15.378;2022-12-28T15:31:20;98461.38;;;3.48;82.00
77279;BME280;66332;50.436;15.378;2022-12-28T15:36:03;98456.16;;;3.69;81.02
77279;BME280;66332;50.436;15.378;2022-12-28T15:40:44;98430.22;;;3.58;81.35
77279;BME280;66332;50.436;15.378;2022-12-28T15:45:26;98444.97;;;3.78;80.77
77279;BME280;66332;50.436;15.378;2022-12-28T15:50:08;98451.50;;;3.73;80.93
77279;BME280;66332;50.436;15.378;2022-12-28T15:54:49;98446.56;;;3.70;81.10
77279;BME280;66332;50.436;15.378;2022-12-28T15:59:30;98452.75;;;3.68;81.67
77279;BME280;66332;50.436;15.378;2022-12-28T16:04:11;98443.94;;;3.60;82.04
77279;BME280;66332;50.436;15.378;2022-12-28T16:08:53;98427.41;;;3.40;82.35
77279;BME280;66332;50.436;15.378;2022-12-28T16:13:35;98443.03;;;3.50;82.55
77279;BME280;66332;50.436;15.378;2022-12-28T16:18:16;98432.13;;;3.56;81.56
77279;BME280;66332;50.436;15.378;2022-12-28T16:22:57;98448.72;;;3.95;80.49
77279;BME280;66332;50.436;15.378;2022-12-28T16:27:39;98444.63;;;3.93;80.55
77279;BME280;66332;50.436;15.378;2022-12-28T16:32:20;98451.78;;;4.20;79.68
77279;BME280;66332;50.436;15.378;2022-12-28T16:37:02;98438.84;;;3.89;80.59
77279;BME280;66332;50.436;15.378;2022-12-28T16:41:43;98449.44;;;3.66;81.87
77279;BME280;66332;50.436;15.378;2022-12-28T16:46:24;98452.81;;;3.88;84.93
77279;BME280;66332;50.436;15.378;2022-12-28T16:51:06;98447.59;;;3.88;81.47
77279;BME280;66332;50.436;15.378;2022-12-28T16:55:47;98446.84;;;3.66;82.51
77279;BME280;66332;50.436;15.378;2022-12-28T17:00:28;98435.09;;;3.41;83.35
77279;BME280;66332;50.436;15.378;2022-12-28T17:05:09;98447.16;;;3.52;82.41
77279;BME280;66332;50.436;15.378;2022-12-28T17:09:50;98438.03;;;3.58;81.87
77279;BME280;66332;50.436;15.378;2022-12-28T17:14:31;98437.75;;;3.91;80.69
77279;BME280;66332;50.436;15.378;2022-12-28T17:19:12;98437.66;;;4.03;80.18
77279;BME280;66332;50.436;15.378;2022-12-28T17:23:53;98420.53;;;4.10;79.01
77279;BME280;66332;50.436;15.378;2022-12-28T17:28:34;98432.22;;;4.25;78.21
77279;BME280;66332;50.436;15.378;2022-12-28T17:33:15;98435.09;;;4.22;78.92
77279;BME280;66332;50.436;15.378;2022-12-28T17:37:56;98421.34;;;4.01;79.37
77279;BME280;66332;50.436;15.378;2022-12-28T17:42:37;98409.31;;;4.00;79.78
77279;BME280;66332;50.436;15.378;2022-12-28T17:47:18;98402.94;;;3.83;80.07
77279;BME280;66332;50.436;15.378;2022-12-28T17:51:59;98411.91;;;4.00;79.79
77279;BME280;66332;50.436;15.378;2022-12-28T17:56:41;98410.97;;;4.10;79.36
77279;BME280;66332;50.436;15.378;2022-12-28T18:01:23;98411.19;;;3.88;79.77
77279;BME280;66332;50.436;15.378;2022-12-28T18:06:05;98407.00;;;3.66;80.34
77279;BME280;66332;50.436;15.378;2022-12-28T18:10:46;98401.59;;;3.48;81.44
77279;BME280;66332;50.436;15.378;2022-12-28T18:15:27;98400.34;;;3.42;81.16
77279;BME280;66332;50.436;15.378;2022-12-28T18:20:08;98408.59;;;3.48;80.81
77279;BME280;66332;50.436;15.378;2022-12-28T18:24:49;98397.97;;;3.30;80.66
77279;BME280;66332;50.436;15.378;2022-12-28T18:29:30;98375.16;;;3.12;81.12
77279;BME280;66332;50.436;15.378;2022-12-28T18:34:11;98402.84;;;3.23;81.32
77279;BME280;66332;50.436;15.378;2022-12-28T18:38:52;98390.69;;;3.24;81.24
77279;BME280;66332;50.436;15.378;2022-12-28T18:43:33;98401.25;;;3.32;81.28
77279;BME280;66332;50.436;15.378;2022-12-28T18:48:15;98396.63;;;3.35;80.77
77279;BME280;66332;50.436;15.378;2022-12-28T18:52:56;98375.00;;;3.35;81.08
77279;BME280;66332;50.436;15.378;2022-12-28T18:57:37;98383.97;;;3.21;81.97
77279;BME280;66332;50.436;15.378;2022-12-28T19:02:18;98387.31;;;3.33;81.61
77279;BME280;66332;50.436;15.378;2022-12-28T19:06:59;98392.44;;;3.44;81.15
77279;BME280;66332;50.436;15.378;2022-12-28T19:11:41;98392.53;;;3.42;81.01
77279;BME280;66332;50.436;15.378;2022-12-28T19:16:23;98379.34;;;3.65;79.88
77279;BME280;66332;50.436;15.378;2022-12-28T19:21:30;98389.75;;;3.65;79.56
77279;BME280;66332;50.436;15.378;2022-12-28T19:26:12;98369.44;;;3.49;80.34
77279;BME280;66332;50.436;15.378;2022-12-28T19:30:53;98351.47;;;3.36;80.22
77279;BME280;66332;50.436;15.378;2022-12-28T19:35:35;98341.16;;;3.25;80.60
77279;BME280;66332;50.436;15.378;2022-12-28T19:40:17;98329.41;;;3.21;80.65
77279;BME280;66332;50.436;15.378;2022-12-28T19:44:59;98331.22;;;3.30;79.90
77279;BME280;66332;50.436;15.378;2022-12-28T19:49:40;98326.28;;;3.27;80.30
77279;BME280;66332;50.436;15.378;2022-12-28T19:54:21;98331.28;;;3.19;81.09
77279;BME280;66332;50.436;15.378;2022-12-28T19:59:04;98351.13;;;3.51;80.74
77279;BME280;66332;50.436;15.378;2022-12-28T20:03:46;98322.41;;;3.21;81.60
77279;BME280;66332;50.436;15.378;2022-12-28T20:08:28;98350.69;;;3.15;82.09
77279;BME280;66332;50.436;15.378;2022-12-28T20:13:11;98307.75;;;3.11;81.59
77279;BME280;66332;50.436;15.378;2022-12-28T20:17:53;98313.81;;;3.21;81.91
77279;BME280;66332;50.436;15.378;2022-12-28T20:22:39;98314.66;;;3.31;80.98
77279;BME280;66332;50.436;15.378;2022-12-28T20:27:20;98317.97;;;3.33;81.39
77279;BME280;66332;50.436;15.378;2022-12-28T20:32:04;98291.72;;;3.06;81.26
77279;BME280;66332;50.436;15.378;2022-12-28T20:36:45;98306.13;;;3.19;81.09
77279;BME280;66332;50.436;15.378;2022-12-28T20:41:30;98281.91;;;2.79;82.36
77279;BME280;66332;50.436;15.378;2022-12-28T20:46:30;98326.91;;;3.19;81.96
77279;BME280;66332;50.436;15.378;2022-12-28T20:51:11;98323.91;;;3.14;81.87
77279;BME280;66332;50.436;15.378;2022-12-28T20:55:52;98308.44;;;3.13;81.68
77279;BME280;66332;50.436;15.378;2022-12-28T21:00:33;98298.00;;;3.03;82.23
77279;BME280;66332;50.436;15.378;2022-12-28T21:05:14;98330.44;;;3.09;82.42
77279;BME280;66332;50.436;15.378;2022-12-28T21:09:55;98296.59;;;3.20;81.70
77279;BME280;66332;50.436;15.378;2022-12-28T21:14:36;98285.19;;;3.11;81.63
77279;BME280;66332;50.436;15.378;2022-12-28T21:19:17;98292.59;;;3.16;81.29
77279;BME280;66332;50.436;15.378;2022-12-28T21:24:01;98305.38;;;3.29;81.22
77279;BME280;66332;50.436;15.378;2022-12-28T21:28:42;98315.53;;;3.41;80.67
77279;BME280;66332;50.436;15.378;2022-12-28T21:33:23;98317.19;;;3.52;80.25
77279;BME280;66332;50.436;15.378;2022-12-28T21:38:04;98309.72;;;3.68;79.62
77279;BME280;66332;50.436;15.378;2022-12-28T21:42:46;98303.56;;;3.70;78.88
77279;BME280;66332;50.436;15.378;2022-12-28T21:47:26;98288.66;;;3.72;78.43
77279;BME280;66332;50.436;15.378;2022-12-28T21:52:08;98287.47;;;3.35;79.93
77279;BME280;66332;50.436;15.378;2022-12-28T21:56:50;98288.63;;;3.12;81.84
77279;BME280;66332;50.436;15.378;2022-12-28T22:01:32;98281.06;;;2.99;82.34
77279;BME280;66332;50.436;15.378;2022-12-28T22:06:32;98236.34;;;2.65;82.25
77279;BME280;66332;50.436;15.378;2022-12-28T22:11:14;98230.41;;;2.53;82.96
77279;BME280;66332;50.436;15.378;2022-12-28T22:16:15;98255.34;;;2.65;83.42
77279;BME280;66332;50.436;15.378;2022-12-28T22:20:56;98247.47;;;2.56;84.00
77279;BME280;66332;50.436;15.378;2022-12-28T22:25:38;98232.63;;;2.37;84.17
77279;BME280;66332;50.436;15.378;2022-12-28T22:30:19;98251.16;;;2.53;83.56
77279;BME280;66332;50.436;15.378;2022-12-28T22:35:00;98214.38;;;2.48;82.78
77279;BME280;66332;50.436;15.378;2022-12-28T22:39:41;98243.41;;;2.84;81.83
77279;BME280;66332;50.436;15.378;2022-12-28T22:44:22;98222.78;;;2.92;80.67
77279;BME280;66332;50.436;15.378;2022-12-28T22:49:03;98205.22;;;2.74;81.08
77279;BME280;66332;50.436;15.378;2022-12-28T22:53:44;98227.16;;;2.61;81.86
